Time;durP1;ratioP1;P1;durP2;ratioP2;P2;SDS_P1;SDS_P2;PMS_P1;PMS_P2;Temp;Humidity;BMP_temperature;BMP_pressure;BME280_temperature;BME280_humidity;BME280_pressure;Samples;Min_cycle;Max_cycle;Signal;HPM_P1;HPM_P2
2023/10/22 00:00:42;;;;;;;17.30;10.07;;;;;;;1.79;100.00;99977.56;5109959;27;20504;-69
2023/10/22 00:03:06;;;;;;;19.35;11.35;;;;;;;1.76;100.00;99976.78;5102289;27;20126;-68
2023/10/22 00:05:31;;;;;;;16.92;11.63;;;;;;;1.76;100.00;99974.16;5080254;27;20125;-78
2023/10/22 00:07:56;;;;;;;17.20;11.20;;;;;;;1.72;100.00;99976.00;5100320;27;20834;-73
2023/10/22 00:10:21;;;;;;;23.42;13.05;;;;;;;1.63;100.00;99965.78;5081433;27;20154;-72
2023/10/22 00:12:45;;;;;;;18.92;11.20;;;;;;;1.53;100.00;99958.22;5099415;27;20043;-73
2023/10/22 00:15:10;;;;;;;21.15;11.70;;;;;;;1.48;100.00;99952.22;5063912;27;20045;-73
2023/10/22 00:17:35;;;;;;;18.70;11.68;;;;;;;1.38;100.00;99930.63;5099553;27;20512;-78
2023/10/22 00:20:00;;;;;;;17.60;11.20;;;;;;;1.39;100.00;99938.47;5080171;27;20129;-72
2023/10/22 00:22:24;;;;;;;15.50;10.25;;;;;;;1.38;100.00;99957.75;5098316;27;20061;-74
2023/10/22 00:24:49;;;;;;;16.20;10.10;;;;;;;1.34;100.00;99950.03;5080692;27;20508;-77
2023/10/22 00:27:14;;;;;;;20.80;11.88;;;;;;;1.37;100.00;99957.78;5099238;27;20164;-74
2023/10/22 00:29:39;;;;;;;21.52;10.98;;;;;;;1.36;100.00;99954.31;5078734;27;20039;-68
2023/10/22 00:32:04;;;;;;;16.67;9.90;;;;;;;1.45;100.00;99961.09;5061516;27;20035;-72
2023/10/22 00:34:29;;;;;;;15.85;10.30;;;;;;;1.46;100.00;99954.94;5097425;27;20046;-71
2023/10/22 00:36:54;;;;;;;15.07;9.63;;;;;;;1.50;100.00;99966.19;5079084;27;20035;-72
2023/10/22 00:39:19;;;;;;;15.70;9.30;;;;;;;1.51;100.00;99962.66;5044679;27;20039;-66
2023/10/22 00:41:43;;;;;;;16.15;7.85;;;;;;;1.60;100.00;99973.75;5078428;27;20139;-72
2023/10/22 00:44:08;;;;;;;12.45;7.30;;;;;;;1.59;100.00;99985.16;5061157;27;20107;-73
2023/10/22 00:46:33;;;;;;;14.85;9.15;;;;;;;1.62;100.00;99990.34;5060734;27;20027;-64
2023/10/22 00:48:58;;;;;;;14.60;8.35;;;;;;;1.66;100.00;99989.34;5073964;27;20848;-66
2023/10/22 00:51:23;;;;;;;13.77;8.40;;;;;;;1.72;100.00;99983.91;5096271;27;20154;-66
2023/10/22 00:53:49;;;;;;;13.27;7.93;;;;;;;1.68;100.00;99963.03;5083058;27;20062;-67
2023/10/22 00:56:14;;;;;;;11.70;7.47;;;;;;;1.82;100.00;99972.19;5093313;27;20357;-68
2023/10/22 00:58:41;;;;;;;14.75;8.15;;;;;;;1.74;100.00;99947.91;5091127;27;20119;-65
2023/10/22 01:01:07;;;;;;;12.60;8.55;;;;;;;1.76;100.00;99943.47;5109752;27;20034;-69
2023/10/22 01:03:34;;;;;;;11.07;7.68;;;;;;;1.79;100.00;99960.94;5061965;27;20047;-66
2023/10/22 01:06:02;;;;;;;11.73;7.85;;;;;;;1.88;100.00;99965.03;5077577;27;20039;-66
2023/10/22 01:08:26;;;;;;;12.07;8.07;;;;;;;1.85;100.00;99971.25;5091717;27;20047;-67
2023/10/22 01:10:51;;;;;;;14.27;7.63;;;;;;;1.92;100.00;99980.66;5076537;27;20043;-68
2023/10/22 01:13:16;;;;;;;15.20;7.75;;;;;;;1.99;100.00;99968.19;5075163;28;20079;-68
2023/10/22 01:15:41;;;;;;;13.02;7.88;;;;;;;2.11;100.00;99968.66;5057214;28;20122;-68
2023/10/22 01:18:05;;;;;;;17.35;7.65;;;;;;;2.04;100.00;99980.28;5040503;28;20650;-67
2023/10/22 01:20:31;;;;;;;9.90;6.97;;;;;;;2.02;100.00;99965.47;5040220;28;20050;-66
2023/10/22 01:22:55;;;;;;;10.02;6.88;;;;;;;2.05;100.00;99950.44;5081382;27;20043;-66
2023/10/22 01:25:20;;;;;;;10.77;7.10;;;;;;;2.03;100.00;99938.28;5102343;27;20035;-65
2023/10/22 01:27:45;;;;;;;16.27;6.47;;;;;;;1.92;100.00;99953.53;5085139;27;20091;-72
2023/10/22 01:30:10;;;;;;;15.80;7.78;;;;;;;1.86;100.00;99974.72;5073699;27;20058;-72
2023/10/22 01:32:35;;;;;;;10.73;7.28;;;;;;;1.84;99.89;99977.41;5084634;27;20118;-73
2023/10/22 01:35:01;;;;;;;12.95;7.65;;;;;;;1.85;99.87;99984.38;5060146;27;20551;-73
2023/10/22 01:37:27;;;;;;;12.18;8.13;;;;;;;1.84;99.85;99982.66;5047265;28;20035;-74
2023/10/22 01:39:54;;;;;;;11.60;8.20;;;;;;;1.88;100.00;99957.16;5023849;28;20038;-70
2023/10/22 01:42:18;;;;;;;10.32;6.95;;;;;;;1.94;100.00;99949.06;5057186;28;20086;-71
2023/10/22 01:44:44;;;;;;;14.43;7.25;;;;;;;1.94;100.00;99942.03;5075307;28;20051;-67
2023/10/22 01:47:10;;;;;;;12.05;6.78;;;;;;;2.00;100.00;99930.47;5076624;27;20096;-68
2023/10/22 01:49:35;;;;;;;17.65;9.45;;;;;;;2.06;99.46;99944.28;5060473;27;20034;-71
2023/10/22 01:52:00;;;;;;;10.27;7.32;;;;;;;1.98;100.00;99958.56;5096005;27;20134;-70
2023/10/22 01:54:25;;;;;;;12.35;8.00;;;;;;;1.97;100.00;99934.06;5077136;27;20042;-70
2023/10/22 01:56:49;;;;;;;14.15;6.82;;;;;;;2.03;100.00;99930.38;5095413;27;20425;-71
2023/10/22 01:59:14;;;;;;;14.20;6.97;;;;;;;2.04;99.79;99925.06;5095619;27;20493;-69
2023/10/22 02:01:39;;;;;;;13.98;7.63;;;;;;;2.08;99.24;99924.06;5056765;28;20036;-70
2023/10/22 02:04:04;;;;;;;11.00;7.03;;;;;;;1.99;99.58;99908.56;5070732;27;20051;-71
2023/10/22 02:06:29;;;;;;;12.63;7.05;;;;;;;1.97;99.43;99901.63;5077462;28;20046;-71
2023/10/22 02:08:54;;;;;;;10.52;6.50;;;;;;;2.02;99.08;99899.75;5076940;28;20108;-71
2023/10/22 02:11:19;;;;;;;13.35;8.45;;;;;;;1.88;98.77;99904.56;5076539;28;20038;-71
2023/10/22 02:13:44;;;;;;;12.57;6.70;;;;;;;1.82;97.89;99902.97;5094936;28;20047;-72
2023/10/22 02:16:08;;;;;;;8.30;5.38;;;;;;;1.90;98.26;99879.09;5043350;28;20050;-72
2023/10/22 02:18:34;;;;;;;12.25;6.35;;;;;;;1.95;98.58;99874.53;5095659;27;20047;-74
2023/10/22 02:21:00;;;;;;;11.82;6.20;;;;;;;1.92;97.92;99893.88;5077360;28;20451;-73
2023/10/22 02:23:25;;;;;;;12.70;7.40;;;;;;;1.89;98.67;99896.63;5077237;28;20171;-67
2023/10/22 02:25:50;;;;;;;9.02;6.18;;;;;;;2.02;97.93;99883.97;5076855;28;20150;-66
2023/10/22 02:28:17;;;;;;;9.18;5.05;;;;;;;2.16;97.47;99858.03;5076655;28;20043;-67
2023/10/22 02:30:42;;;;;;;10.20;5.90;;;;;;;2.20;96.30;99854.41;5094893;27;20139;-68
2023/10/22 02:33:07;;;;;;;9.88;5.25;;;;;;;2.15;96.39;99846.66;5076628;27;20096;-66
2023/10/22 02:35:31;;;;;;;11.18;5.63;;;;;;;2.08;95.74;99858.31;5094869;28;20121;-66
2023/10/22 02:37:56;;;;;;;10.82;6.53;;;;;;;1.90;94.90;99853.69;5076431;28;20047;-67
2023/10/22 02:40:23;;;;;;;10.57;6.93;;;;;;;1.82;94.74;99864.41;5059356;28;20042;-65
2023/10/22 02:42:48;;;;;;;8.73;5.43;;;;;;;1.71;95.05;99861.28;5075856;28;20051;-65
2023/10/22 02:45:12;;;;;;;9.10;6.18;;;;;;;1.68;95.77;99856.13;5077878;27;20489;-66
2023/10/22 02:47:37;;;;;;;11.10;6.43;;;;;;;1.72;95.78;99870.88;5080190;27;20422;-65
2023/10/22 02:50:04;;;;;;;13.13;6.40;;;;;;;1.67;95.54;99867.56;5080464;27;20054;-67
2023/10/22 02:52:28;;;;;;;10.52;7.00;;;;;;;1.79;95.84;99889.97;5080529;27;20450;-65
2023/10/22 02:54:53;;;;;;;14.18;7.25;;;;;;;1.80;96.45;99882.03;5046713;27;20446;-71
2023/10/22 02:57:18;;;;;;;11.60;6.18;;;;;;;1.89;95.70;99891.38;5080836;27;20199;-70
2023/10/22 02:59:43;;;;;;;9.88;6.35;;;;;;;1.93;96.11;99876.34;5063462;27;20067;-70
2023/10/22 03:02:07;;;;;;;12.02;7.25;;;;;;;1.97;95.75;99899.88;5080347;27;20447;-70
2023/10/22 03:04:32;;;;;;;11.35;6.78;;;;;;;1.93;96.33;99886.88;5080668;27;20454;-73
2023/10/22 03:06:57;;;;;;;10.70;6.55;;;;;;;1.92;95.67;99887.81;5081087;27;20127;-71
2023/10/22 03:09:22;;;;;;;13.52;7.30;;;;;;;1.69;94.68;99886.75;5063188;27;20039;-71
2023/10/22 03:11:46;;;;;;;13.38;6.70;;;;;;;1.84;94.32;99877.50;5098504;27;20107;-70
2023/10/22 03:14:12;;;;;;;8.48;6.75;;;;;;;1.94;94.29;99872.81;5080162;27;20043;-69
2023/10/22 03:16:37;;;;;;;8.70;4.90;;;;;;;1.94;94.15;99873.69;5079986;27;20501;-71
2023/10/22 03:19:01;;;;;;;14.65;7.25;;;;;;;1.83;94.57;99865.28;5070137;28;20817;-76
2023/10/22 03:21:28;;;;;;;14.27;8.10;;;;;;;1.69;93.91;99873.59;5080598;27;20572;-71
2023/10/22 03:23:53;;;;;;;12.13;8.40;;;;;;;1.75;94.21;99855.03;5059674;28;20042;-71
2023/10/22 03:26:18;;;;;;;22.02;8.90;;;;;;;1.76;94.60;99848.00;5059714;28;20413;-71
2023/10/22 03:28:44;;;;;;;10.55;5.75;;;;;;;1.78;94.32;99838.31;5090398;27;20039;-71
2023/10/22 03:31:12;;;;;;;14.38;8.15;;;;;;;1.95;94.70;99838.59;5049586;27;20050;-69
2023/10/22 03:33:36;;;;;;;13.02;7.10;;;;;;;1.84;94.49;99845.97;5047484;27;20084;-70
2023/10/22 03:36:04;;;;;;;9.38;6.25;;;;;;;1.83;94.74;99846.88;5060619;27;20043;-71
2023/10/22 03:38:30;;;;;;;10.93;7.30;;;;;;;1.77;94.60;99840.06;5066422;27;20489;-70
2023/10/22 03:41:04;;;;;;;10.32;5.82;;;;;;;1.82;94.40;99853.91;5043145;28;20056;-71
2023/10/22 03:43:31;;;;;;;12.32;6.05;;;;;;;1.85;94.64;99841.56;5072917;27;20035;-70
2023/10/22 03:45:57;;;;;;;9.85;5.35;;;;;;;1.93;95.00;99806.22;5080170;27;20406;-72
2023/10/22 03:48:23;;;;;;;11.38;5.75;;;;;;;2.00;93.86;99812.16;5097882;27;20108;-72
2023/10/22 03:50:48;;;;;;;8.90;5.05;;;;;;;1.96;93.97;99813.16;5079221;27;20047;-73
2023/10/22 03:53:13;;;;;;;9.82;6.22;;;;;;;1.80;94.40;99820.72;5079474;27;20047;-68
2023/10/22 03:55:37;;;;;;;9.63;6.68;;;;;;;1.82;94.22;99825.00;5079176;27;20043;-68
2023/10/22 03:58:02;;;;;;;9.23;6.00;;;;;;;1.77;94.26;99818.19;5096965;27;20180;-68
2023/10/22 04:00:27;;;;;;;11.77;6.90;;;;;;;1.76;95.06;99819.94;5078978;27;20068;-67
2023/10/22 04:02:52;;;;;;;9.25;5.68;;;;;;;1.83;94.51;99818.81;5062394;27;20126;-68
2023/10/22 04:05:16;;;;;;;9.77;5.65;;;;;;;1.85;94.79;99808.25;5097368;27;20045;-68
2023/10/22 04:07:41;;;;;;;13.80;6.03;;;;;;;1.82;95.46;99797.84;5097534;27;20039;-67
2023/10/22 04:10:09;;;;;;;8.82;5.55;;;;;;;1.94;94.58;99805.31;5097500;27;20046;-67
2023/10/22 04:12:34;;;;;;;12.07;6.75;;;;;;;1.85;94.68;99802.16;5078953;27;20169;-68
2023/10/22 04:14:59;;;;;;;7.50;4.85;;;;;;;1.91;94.47;99805.44;5079038;27;20183;-67
2023/10/22 04:17:24;;;;;;;8.90;5.85;;;;;;;1.73;94.99;99817.41;5097210;27;20075;-68
2023/10/22 04:19:48;;;;;;;8.60;5.72;;;;;;;1.80;94.48;99812.84;5078800;27;20039;-69
2023/10/22 04:22:13;;;;;;;10.60;6.93;;;;;;;1.78;94.57;99817.28;5061702;27;20043;-68
2023/10/22 04:24:37;;;;;;;10.00;5.60;;;;;;;1.66;95.01;99812.41;5061458;27;20035;-68
2023/10/22 04:27:04;;;;;;;15.35;6.70;;;;;;;1.76;95.46;99827.84;5078439;27;20042;-67
2023/10/22 04:29:29;;;;;;;12.27;6.13;;;;;;;1.68;95.25;99829.88;5096719;27;20464;-69
2023/10/22 04:31:54;;;;;;;9.60;6.07;;;;;;;1.65;95.93;99839.59;5097008;27;20467;-72
2023/10/22 04:34:18;;;;;;;11.05;6.25;;;;;;;1.73;96.08;99822.66;5097077;27;20091;-73
2023/10/22 04:36:43;;;;;;;10.02;6.40;;;;;;;1.73;96.43;99835.81;5097167;27;20500;-72
2023/10/22 04:39:08;;;;;;;12.15;6.00;;;;;;;1.66;96.16;99852.69;5096491;27;20392;-72
2023/10/22 04:41:32;;;;;;;9.80;5.85;;;;;;;1.61;97.02;99853.72;5044174;27;20051;-74
2023/10/22 04:43:57;;;;;;;11.32;6.05;;;;;;;1.70;97.83;99859.56;5096560;27;20084;-74
2023/10/22 04:46:22;;;;;;;8.13;4.63;;;;;;;1.80;97.73;99858.38;5096964;27;20039;-72
2023/10/22 04:48:46;;;;;;;9.52;6.63;;;;;;;1.66;97.26;99860.59;5096492;27;20046;-72
2023/10/22 04:51:11;;;;;;;12.00;6.38;;;;;;;1.73;96.88;99871.75;5078410;27;20055;-73
2023/10/22 04:53:36;;;;;;;10.98;6.57;;;;;;;1.80;98.04;99866.25;5078394;27;20043;-72
2023/10/22 04:56:01;;;;;;;12.55;6.75;;;;;;;1.83;97.08;99875.78;5096228;27;20146;-72
2023/10/22 04:58:28;;;;;;;9.73;6.30;;;;;;;1.74;97.44;99871.69;5078106;27;20040;-72
2023/10/22 05:00:53;;;;;;;10.98;5.90;;;;;;;1.86;97.58;99870.44;5096438;27;20891;-71
2023/10/22 05:03:17;;;;;;;8.63;5.90;;;;;;;1.88;97.49;99878.28;5077848;27;20493;-72
2023/10/22 05:05:42;;;;;;;7.90;5.47;;;;;;;1.90;98.14;99868.59;5077666;27;20054;-69
2023/10/22 05:08:07;;;;;;;12.73;6.82;;;;;;;1.88;97.79;99865.16;5077202;28;20497;-69
2023/10/22 05:10:39;;;;;;;9.68;6.20;;;;;;;1.88;96.72;99855.50;5077201;27;20062;-69
2023/10/22 05:13:04;;;;;;;12.18;5.90;;;;;;;1.91;97.45;99871.16;5060707;27;20382;-69
2023/10/22 05:15:29;;;;;;;8.80;5.88;;;;;;;1.93;96.54;99858.81;5077657;27;20043;-69
2023/10/22 05:17:55;;;;;;;11.40;6.70;;;;;;;1.62;97.28;99866.81;5057082;28;20047;-69
2023/10/22 05:20:19;;;;;;;10.90;7.15;;;;;;;1.58;98.20;99872.25;5075504;28;20406;-69
2023/10/22 05:22:46;;;;;;;10.57;5.70;;;;;;;1.77;97.61;99865.50;5057372;28;20043;-70
2023/10/22 05:25:11;;;;;;;10.25;5.93;;;;;;;1.80;97.35;99861.00;5057372;28;20460;-68
2023/10/22 05:27:36;;;;;;;10.95;6.00;;;;;;;1.75;96.81;99867.31;5066770;27;20138;-67
2023/10/22 05:30:00;;;;;;;10.77;6.45;;;;;;;1.72;97.65;99872.66;5095615;27;20513;-72
2023/10/22 05:32:26;;;;;;;12.77;6.65;;;;;;;1.72;97.75;99870.88;5060562;27;20039;-73
2023/10/22 05:34:51;;;;;;;8.82;5.25;;;;;;;1.84;97.61;99880.16;5096212;27;20043;-74
2023/10/22 05:37:17;;;;;;;11.20;6.05;;;;;;;1.80;97.71;99881.16;5077558;27;20190;-73
2023/10/22 05:39:42;;;;;;;9.88;6.30;;;;;;;1.80;97.20;99882.03;5077725;27;20074;-72
2023/10/22 05:42:07;;;;;;;7.85;5.25;;;;;;;1.83;97.29;99881.06;5095400;27;20276;-73
2023/10/22 05:44:34;;;;;;;8.77;6.03;;;;;;;1.75;96.53;99889.19;5077172;27;20544;-72
2023/10/22 05:46:59;;;;;;;13.32;7.75;;;;;;;1.76;96.97;99916.34;5077306;27;20131;-75
2023/10/22 05:49:23;;;;;;;13.63;7.18;;;;;;;1.77;96.72;99921.56;5095681;27;20126;-73
2023/10/22 05:51:50;;;;;;;15.95;8.05;;;;;;;1.80;97.61;99942.50;5087158;27;20122;-72
2023/10/22 05:54:15;;;;;;;12.75;7.88;;;;;;;1.81;97.89;99936.28;5095941;27;20046;-73
2023/10/22 05:56:39;;;;;;;16.25;9.13;;;;;;;1.92;97.60;99921.97;5077342;27;20039;-73
2023/10/22 05:59:08;;;;;;;16.42;9.15;;;;;;;2.01;96.59;99912.03;5077291;27;20038;-74
2023/10/22 06:01:32;;;;;;;14.65;8.77;;;;;;;1.97;96.01;99901.63;5095697;27;20084;-73
2023/10/22 06:03:57;;;;;;;24.70;13.73;;;;;;;2.05;95.02;99910.13;5077492;28;20039;-73
2023/10/22 06:06:22;;;;;;;27.50;14.07;;;;;;;1.78;95.31;99904.00;5096025;27;20098;-74
2023/10/22 06:08:47;;;;;;;29.13;16.38;;;;;;;1.65;95.41;99907.94;5095426;27;20139;-74
2023/10/22 06:11:12;;;;;;;30.70;15.10;;;;;;;1.67;95.71;99908.75;5095656;28;20051;-74
2023/10/22 06:13:36;;;;;;;24.88;14.40;;;;;;;1.77;95.45;99913.66;5076735;27;20043;-74
2023/10/22 06:16:02;;;;;;;32.03;17.23;;;;;;;1.72;95.61;99894.53;5094970;27;20053;-74
2023/10/22 06:18:26;;;;;;;32.75;14.73;;;;;;;1.92;96.09;99907.03;5076383;28;20031;-74
2023/10/22 06:20:51;;;;;;;30.20;16.42;;;;;;;1.85;96.18;99902.03;5079412;27;20042;-73
2023/10/22 06:23:15;;;;;;;33.22;17.02;;;;;;;1.82;95.45;99900.34;5098825;27;20039;-74
2023/10/22 06:25:42;;;;;;;36.60;18.70;;;;;;;2.01;95.83;99909.41;5099683;27;20054;-74
2023/10/22 06:28:07;;;;;;;36.05;18.60;;;;;;;1.88;94.86;99910.69;5099371;27;20115;-73
2023/10/22 06:30:32;;;;;;;38.35;15.80;;;;;;;1.77;95.70;99902.28;5060271;28;20070;-71
2023/10/22 06:32:58;;;;;;;32.75;15.90;;;;;;;1.91;95.04;99884.31;5027203;28;20410;-69
2023/10/22 06:35:26;;;;;;;28.92;16.90;;;;;;;1.83;95.26;99902.06;5079139;28;20043;-69
2023/10/22 06:37:51;;;;;;;27.88;14.90;;;;;;;1.78;95.48;99891.72;5077560;28;20546;-69
2023/10/22 06:40:17;;;;;;;38.00;18.48;;;;;;;1.73;96.03;99895.41;5073715;27;20051;-70
2023/10/22 06:42:41;;;;;;;35.33;18.33;;;;;;;1.79;96.48;99900.47;5080545;27;20134;-69
2023/10/22 06:45:07;;;;;;;38.75;18.95;;;;;;;1.76;96.38;99905.81;5080968;27;20126;-69
2023/10/22 06:47:35;;;;;;;37.20;18.60;;;;;;;1.93;96.78;99902.63;5046730;27;20126;-69
2023/10/22 06:50:00;;;;;;;41.35;22.00;;;;;;;1.79;96.40;99895.22;5080660;27;20074;-69
2023/10/22 06:52:25;;;;;;;32.65;16.17;;;;;;;1.88;97.40;99873.03;5080479;27;20038;-71
2023/10/22 06:54:49;;;;;;;39.40;18.10;;;;;;;1.99;96.50;99863.88;5063208;27;20042;-70
2023/10/22 06:57:14;;;;;;;38.80;20.52;;;;;;;2.01;96.70;99866.47;5080164;27;20034;-70
2023/10/22 06:59:39;;;;;;;29.73;16.55;;;;;;;2.11;97.57;99870.50;5098718;27;20046;-70
2023/10/22 07:02:03;;;;;;;30.63;15.55;;;;;;;2.25;97.33;99870.91;5080140;27;20059;-70
2023/10/22 07:04:28;;;;;;;28.90;15.80;;;;;;;2.33;97.12;99876.75;5080092;27;20054;-70
2023/10/22 07:06:53;;;;;;;22.65;13.48;;;;;;;2.38;97.24;99880.06;5098871;27;20838;-69
2023/10/22 07:09:17;;;;;;;25.08;12.18;;;;;;;2.52;97.20;99863.81;5063296;27;20042;-71
2023/10/22 07:11:43;;;;;;;21.02;9.68;;;;;;;2.58;95.75;99863.63;5062994;27;20039;-71
2023/10/22 07:14:08;;;;;;;27.77;15.20;;;;;;;2.44;94.59;99885.13;5079761;27;20042;-70
2023/10/22 07:16:32;;;;;;;27.67;13.70;;;;;;;2.37;94.26;99882.78;5098395;27;20043;-70
2023/10/22 07:18:57;;;;;;;28.60;15.73;;;;;;;2.35;93.49;99876.72;5062909;27;20039;-69
2023/10/22 07:21:22;;;;;;;32.03;16.75;;;;;;;2.36;93.94;99863.50;5079870;27;20058;-68
2023/10/22 07:23:47;;;;;;;30.13;17.30;;;;;;;2.39;94.17;99873.03;5098001;27;20078;-69
2023/10/22 07:26:12;;;;;;;28.83;14.60;;;;;;;2.44;93.90;99869.34;5079782;27;20493;-68
2023/10/22 07:28:41;;;;;;;29.55;15.82;;;;;;;2.49;94.71;99846.34;5079320;27;20039;-68
2023/10/22 07:31:05;;;;;;;26.13;15.30;;;;;;;2.75;94.04;99855.09;5061917;28;20039;-68
2023/10/22 07:33:30;;;;;;;25.73;15.40;;;;;;;2.73;93.54;99849.88;5097360;27;20050;-73
2023/10/22 07:35:57;;;;;;;32.53;17.95;;;;;;;2.81;94.59;99871.53;5079921;27;20049;-73
2023/10/22 07:38:22;;;;;;;35.13;17.05;;;;;;;2.85;94.11;99859.09;5080217;27;20043;-73
2023/10/22 07:40:47;;;;;;;26.05;14.75;;;;;;;2.92;94.44;99850.94;5062192;27;20562;-74
2023/10/22 07:43:12;;;;;;;26.52;14.60;;;;;;;3.09;93.28;99847.66;5079466;27;20466;-73
2023/10/22 07:45:39;;;;;;;26.17;15.48;;;;;;;3.12;93.59;99846.69;5097569;27;20039;-74
2023/10/22 07:48:04;;;;;;;34.70;16.08;;;;;;;3.21;92.53;99841.94;5097829;27;20039;-74
2023/10/22 07:50:29;;;;;;;27.50;14.25;;;;;;;3.23;91.90;99833.97;5079193;27;20046;-73
2023/10/22 07:52:53;;;;;;;26.55;12.40;;;;;;;3.23;91.49;99837.47;5062082;27;20051;-75
2023/10/22 07:55:18;;;;;;;25.13;14.02;;;;;;;2.95;90.38;99818.34;5079811;27;20092;-75
2023/10/22 07:57:43;;;;;;;24.23;14.82;;;;;;;2.81;90.01;99818.88;5062525;27;20043;-73
2023/10/22 08:00:09;;;;;;;31.73;16.83;;;;;;;2.84;89.48;99812.63;5097660;27;20127;-74
2023/10/22 08:02:36;;;;;;;24.20;14.27;;;;;;;2.84;90.74;99804.72;5098060;27;20043;-72
2023/10/22 08:05:01;;;;;;;21.55;11.43;;;;;;;3.03;90.34;99807.53;5098812;27;20039;-76
2023/10/22 08:07:27;;;;;;;24.85;13.23;;;;;;;2.96;90.58;99796.38;5080973;27;20484;-76
2023/10/22 08:09:52;;;;;;;24.48;14.40;;;;;;;2.93;89.57;99796.50;5062887;27;20766;-77
2023/10/22 08:12:17;;;;;;;27.65;15.15;;;;;;;2.97;89.81;99784.91;5080623;27;20046;-76
2023/10/22 08:14:41;;;;;;;18.65;11.23;;;;;;;2.88;88.18;99769.47;5063751;27;20091;-77
2023/10/22 08:17:06;;;;;;;24.10;16.38;;;;;;;2.69;88.71;99768.47;5046715;27;20050;-75
2023/10/22 08:19:31;;;;;;;28.10;14.73;;;;;;;2.72;89.44;99768.31;5080293;27;20031;-76
2023/10/22 08:21:55;;;;;;;28.08;15.40;;;;;;;2.79;88.89;99764.56;5064296;27;20481;-76
2023/10/22 08:24:20;;;;;;;23.23;13.63;;;;;;;2.70;89.46;99760.50;5047412;27;20462;-78
2023/10/22 08:26:45;;;;;;;26.00;14.52;;;;;;;2.75;90.57;99752.44;5080316;27;20047;-79
2023/10/22 08:29:09;;;;;;;24.50;14.93;;;;;;;2.80;90.85;99748.72;5080307;27;20039;-76
2023/10/22 08:31:34;;;;;;;25.48;15.65;;;;;;;2.88;90.77;99744.00;5098742;27;20043;-76
2023/10/22 08:33:59;;;;;;;22.42;12.75;;;;;;;3.05;90.46;99753.88;5080978;27;20039;-77
2023/10/22 08:36:24;;;;;;;26.60;14.27;;;;;;;3.12;91.79;99755.38;5081294;27;20386;-75
2023/10/22 08:38:48;;;;;;;22.20;13.63;;;;;;;3.18;90.38;99752.47;5080321;27;20046;-76
2023/10/22 08:41:20;;;;;;;26.27;14.88;;;;;;;3.29;91.84;99767.84;5064181;27;20059;-77
2023/10/22 08:43:46;;;;;;;26.70;13.95;;;;;;;3.36;91.29;99771.13;5063805;27;20035;-78
2023/10/22 08:46:11;;;;;;;19.73;10.93;;;;;;;3.43;90.49;99754.13;5063446;27;20042;-78
2023/10/22 08:48:37;;;;;;;26.30;14.43;;;;;;;3.24;89.55;99746.97;5063057;27;20070;-76
2023/10/22 08:51:03;;;;;;;25.35;14.10;;;;;;;3.23;89.04;99744.41;5098008;27;20100;-74
2023/10/22 08:53:28;;;;;;;26.73;15.50;;;;;;;3.33;89.57;99737.84;5097482;27;20058;-75
2023/10/22 08:55:53;;;;;;;25.20;15.13;;;;;;;3.37;90.06;99735.94;5098039;27;20047;-76
2023/10/22 08:58:19;;;;;;;24.13;14.75;;;;;;;3.43;89.82;99741.81;5079697;27;20039;-76
2023/10/22 09:00:46;;;;;;;30.83;16.88;;;;;;;3.45;90.10;99739.13;5097123;27;20049;-73
2023/10/22 09:03:15;;;;;;;20.55;12.40;;;;;;;3.67;89.59;99729.41;5078120;27;20047;-75
2023/10/22 09:05:40;;;;;;;26.30;14.18;;;;;;;3.45;88.64;99721.53;5078446;27;20042;-75
2023/10/22 09:08:04;;;;;;;29.50;15.52;;;;;;;3.54;88.34;99712.38;5077986;27;20039;-74
2023/10/22 09:10:31;;;;;;;25.08;15.02;;;;;;;3.53;89.12;99722.06;5096301;27;20054;-74
2023/10/22 09:13:16;;;;;;;24.83;13.00;;;;;;;3.59;89.47;99726.25;5077872;27;20039;-74
2023/10/22 09:15:49;;;;;;;24.48;15.48;;;;;;;3.39;88.34;99724.41;5061515;27;20039;-73
2023/10/22 09:18:16;;;;;;;19.83;13.52;;;;;;;3.41;89.05;99726.97;5096217;27;20060;-73
2023/10/22 09:20:41;;;;;;;20.83;13.55;;;;;;;3.46;88.67;99719.75;5096622;27;20050;-75
2023/10/22 09:23:22;;;;;;;26.08;15.05;;;;;;;3.64;88.17;99706.66;5078119;27;20092;-75
2023/10/22 09:25:57;;;;;;;26.50;15.05;;;;;;;3.55;88.61;99709.69;5078527;27;20137;-75
2023/10/22 09:28:26;;;;;;;23.35;14.25;;;;;;;3.50;88.34;99687.91;5061430;27;20054;-74
2023/10/22 09:30:56;;;;;;;20.50;13.88;;;;;;;3.44;87.29;99687.31;5096985;27;20416;-75
2023/10/22 09:33:34;;;;;;;19.08;13.02;;;;;;;3.60;88.71;99701.59;5079271;27;20134;-76
2023/10/22 09:36:00;;;;;;;21.08;13.68;;;;;;;3.49;88.94;99690.66;5079390;27;20840;-75
2023/10/22 09:38:48;;;;;;;23.48;14.93;;;;;;;3.72;87.51;99679.97;5097738;27;20043;-77
2023/10/22 09:41:25;;;;;;;23.38;13.77;;;;;;;3.54;86.46;99672.84;5096035;27;20111;-76
2023/10/22 09:43:50;;;;;;;21.42;13.18;;;;;;;3.46;87.00;99667.03;5077935;27;20035;-75
2023/10/22 09:46:18;;;;;;;16.85;9.63;;;;;;;3.64;85.81;99663.63;5061153;27;20588;-76
2023/10/22 09:48:43;;;;;;;20.23;10.70;;;;;;;3.44;86.33;99656.56;5078346;27;20031;-76
2023/10/22 09:51:08;;;;;;;19.05;12.95;;;;;;;3.34;86.42;99654.38;5098563;27;20106;-75
2023/10/22 09:53:38;;;;;;;18.80;11.05;;;;;;;3.37;85.78;99656.91;5097970;27;20130;-76
2023/10/22 09:56:06;;;;;;;17.98;11.70;;;;;;;3.24;86.58;99646.88;5077666;27;20558;-76
2023/10/22 09:58:33;;;;;;;20.73;10.02;;;;;;;3.32;86.29;99658.84;5096455;27;20039;-77
2023/10/22 10:00:59;;;;;;;18.38;11.65;;;;;;;3.17;85.65;99666.47;5077916;27;20038;-77
2023/10/22 10:03:24;;;;;;;22.27;13.35;;;;;;;3.09;86.28;99667.69;5096314;27;20039;-74
2023/10/22 10:05:51;;;;;;;16.10;10.63;;;;;;;3.05;87.70;99666.97;5076960;27;20149;-76
2023/10/22 10:08:17;;;;;;;19.83;12.13;;;;;;;3.07;88.02;99675.66;5043664;28;20493;-75
2023/10/22 10:10:42;;;;;;;11.85;7.28;;;;;;;3.10;87.17;99665.00;5077529;28;20514;-73
2023/10/22 10:13:07;;;;;;;17.40;11.60;;;;;;;2.96;88.37;99662.06;5095419;28;20589;-75
2023/10/22 10:15:34;;;;;;;16.38;8.95;;;;;;;2.97;88.57;99650.63;5078684;28;20884;-77
2023/10/22 10:18:01;;;;;;;18.80;10.43;;;;;;;2.97;89.05;99648.00;5096692;28;20039;-81
2023/10/22 10:20:27;;;;;;;18.52;11.20;;;;;;;2.96;89.45;99656.81;5071363;28;20146;-74
2023/10/22 10:23:08;;;;;;;19.30;10.52;;;;;;;3.06;89.32;99659.91;5096213;28;20155;-76
2023/10/22 10:25:35;;;;;;;16.95;9.88;;;;;;;2.92;89.38;99647.34;5063493;28;20050;-74
2023/10/22 10:28:02;;;;;;;18.73;12.63;;;;;;;2.75;89.47;99645.34;5061269;27;20039;-74
2023/10/22 10:30:27;;;;;;;8.63;5.40;;;;;;;2.87;90.05;99639.59;5096944;28;20504;-75
2023/10/22 10:32:51;;;;;;;12.68;8.52;;;;;;;2.97;90.01;99648.00;5093846;28;20481;-74
2023/10/22 10:35:17;;;;;;;18.48;12.27;;;;;;;2.85;90.25;99651.09;5080665;28;20039;-77
2023/10/22 10:38:13;;;;;;;17.70;11.13;;;;;;;2.97;91.38;99649.75;5054248;28;20168;-78
2023/10/22 10:40:51;;;;;;;19.35;11.07;;;;;;;2.90;90.19;99646.53;5081820;28;20113;-78
2023/10/22 10:43:16;;;;;;;21.50;12.30;;;;;;;2.72;91.38;99632.31;5061564;28;20040;-74
2023/10/22 10:46:20;;;;;;;16.42;11.63;;;;;;;2.89;91.48;99632.50;5058019;28;20070;-76
2023/10/22 10:48:47;;;;;;;21.48;12.85;;;;;;;2.86;91.41;99634.41;5068213;28;20062;-77
2023/10/22 10:51:20;;;;;;;17.65;11.48;;;;;;;2.82;90.86;99623.13;5043711;28;20039;-76
2023/10/22 10:54:12;;;;;;;17.23;10.25;;;;;;;2.90;92.04;99628.09;5088229;28;20092;-75
2023/10/22 10:56:56;;;;;;;15.25;9.10;;;;;;;2.93;91.55;99623.53;5070477;28;20049;-75
2023/10/22 10:59:24;;;;;;;22.40;11.07;;;;;;;2.95;91.98;99612.94;5062021;28;20095;-75
2023/10/22 11:02:11;;;;;;;12.23;8.18;;;;;;;2.93;90.99;99607.75;5077796;28;20050;-72
2023/10/22 11:04:38;;;;;;;16.55;11.45;;;;;;;2.79;91.46;99611.88;5057533;28;20043;-73
2023/10/22 11:07:04;;;;;;;19.95;13.80;;;;;;;2.57;92.19;99601.34;5076936;28;20043;-72
2023/10/22 11:09:31;;;;;;;18.17;12.15;;;;;;;2.84;92.16;99610.75;5066019;27;20035;-71
2023/10/22 11:12:03;;;;;;;17.83;10.70;;;;;;;2.88;92.34;99600.97;5079888;27;20070;-74
2023/10/22 11:14:28;;;;;;;10.95;7.18;;;;;;;2.90;93.19;99607.03;5046347;27;20043;-73
2023/10/22 11:16:55;;;;;;;18.98;12.95;;;;;;;2.65;93.13;99616.84;5070401;28;20035;-77
2023/10/22 11:19:21;;;;;;;21.45;12.65;;;;;;;2.73;93.86;99618.22;5085875;27;20062;-79
2023/10/22 11:21:46;;;;;;;20.08;13.32;;;;;;;2.53;93.38;99597.97;5061549;28;20167;-73
2023/10/22 11:24:11;;;;;;;20.85;12.02;;;;;;;2.68;94.15;99608.81;5079888;28;20088;-74